6VG4 weather

Stonesprings Heliport
Arcola, Virginia, United States

Public forecast

Using degrees Fahrenheit for public forecast. Weather courtesy of forecast.io.

Closest aviation weather report (METAR) to Stonesprings Heliport

Closest report is Washington Dulles International Airport, 4.0 nm (7.4 km) E. Retrieved 2020/06/02 02:52 UTC (1 hour ago):

KIAD 020252Z 16004KT 10SM SCT250 13/07 A3019 RMK AO2 SLP221 T01330067 53010

Closest aviation forecast (TAF) to Stonesprings Heliport

Closest forecast is Washington Dulles International Airport, 4.0 nm (7.4 km) E. Retrieved 2020-06-02 00:22 UTC (4 hours ago):

TAF KIAD 012320Z 0200/0306 VRB03KT P6SM FEW150 FM020900 00000KT P6SM BKN200 FM021500 24005KT P6SM OVC080 FM022000 20008KT P6SM SCT090